Brady, Nebraska
Current Conditions -  °F | °C
As of 1:53 AM on Friday 24 Oct 2014 (Local Time) from KLBF Reporting Station
Clear Clear  
Wind Chill: 49°   Ceiling: Unl
Heat Index: 49°   Visibility: 10mi
Dew Point: 47°   Wind: 3mph
Humidity: 93%   Direction: 330°NNW
Pressure: 29.99"   Gusts: NA
Location:  41.02°N, 100.37°W
Report Text: KLBF 240653Z AUTO 33003KT 10SM CLR 09/08 A2999 RMK AO2 SLP142 T00940083
Loading
Personal Weather Stations






























Interactive Weather Map
Tropical Storm Tracking
New forecast layout! Learn more

10-Day Weather Forecast

Advertisements
Track Severe Weather on mobile